Time;durP1;ratioP1;P1;durP2;ratioP2;P2;SDS_P1;SDS_P2;PMS_P1;PMS_P2;Temp;Humidity;BMP_temperature;BMP_pressure;BME280_temperature;BME280_humidity;BME280_pressure;Samples;Min_cycle;Max_cycle;Signal;HPM_P1;HPM_P2
2022/10/07 00:01:19;;;;;;;;;;;11.30;99.90;;;;;;5012733;28;19921;-66
2022/10/07 00:03:44;;;;;;;;;;;11.20;99.90;;;;;;5031421;28;19990;-66
2022/10/07 00:06:10;;;;;;;;;;;11.20;99.90;;;;;;5005547;28;19932;-66
2022/10/07 00:08:36;;;;;;;;;;;11.30;99.90;;;;;;5004927;28;19921;-66
2022/10/07 00:11:05;;;;;;;;;;;11.30;99.90;;;;;;5031623;28;19951;-66
2022/10/07 00:13:31;;;;;;;;;;;11.20;99.90;;;;;;5031156;28;20349;-66
2022/10/07 00:16:05;;;;;;;;;;;11.30;99.90;;;;;;5004556;28;19921;-66
2022/10/07 00:18:31;;;;;;;;;;;11.30;99.90;;;;;;5005485;28;19925;-66
2022/10/07 00:21:00;;;;;;;;;;;11.20;99.90;;;;;;5013259;28;19921;-66
2022/10/07 00:23:26;;;;;;;;;;;11.30;99.90;;;;;;5012499;28;20016;-66
2022/10/07 00:25:51;;;;;;;;;;;11.20;99.90;;;;;;5009222;28;20011;-66
2022/10/07 00:28:17;;;;;;;;;;;11.20;99.90;;;;;;5013439;28;19924;-66
2022/10/07 00:30:43;;;;;;;;;;;11.10;99.90;;;;;;5015362;28;19986;-66
2022/10/07 00:33:09;;;;;;;;;;;11.20;99.90;;;;;;5034892;28;19983;-66
2022/10/07 00:35:35;;;;;;;;;;;11.20;99.90;;;;;;5034080;28;20384;-66
2022/10/07 00:38:00;;;;;;;;;;;11.20;99.90;;;;;;5016863;28;20308;-66
2022/10/07 00:40:26;;;;;;;;;;;11.30;99.90;;;;;;5035166;28;20051;-66
2022/10/07 00:42:51;;;;;;;;;;;11.30;99.90;;;;;;5016342;28;20066;-66
2022/10/07 00:45:18;;;;;;;;;;;11.30;99.90;;;;;;5034685;28;19929;-66
2022/10/07 00:47:45;;;;;;;;;;;11.20;99.90;;;;;;5017133;28;19960;-66
2022/10/07 00:50:22;;;;;;;;;;;11.20;99.90;;;;;;5005202;28;19921;-66
2022/10/07 00:52:50;;;;;;;;;;;11.20;99.90;;;;;;5020273;28;19922;-66
2022/10/07 00:55:18;;;;;;;;;;;11.20;99.90;;;;;;5009775;28;19921;-66
2022/10/07 00:57:47;;;;;;;;;;;11.20;99.90;;;;;;5021702;28;19922;-66
2022/10/07 01:00:13;;;;;;;;;;;11.30;99.90;;;;;;5026529;28;19921;-66
2022/10/07 01:02:42;;;;;;;;;;;11.20;99.90;;;;;;5005456;28;20346;-67
2022/10/07 01:05:08;;;;;;;;;;;11.20;99.90;;;;;;5025836;28;19952;-67
2022/10/07 01:07:34;;;;;;;;;;;11.20;99.90;;;;;;5005754;28;19955;-67
2022/10/07 01:10:00;;;;;;;;;;;11.20;99.90;;;;;;5007693;28;20324;-67
2022/10/07 01:12:35;;;;;;;;;;;11.20;99.90;;;;;;5023348;28;19925;-67
2022/10/07 01:15:07;;;;;;;;;;;11.10;99.90;;;;;;5024977;28;20348;-67
2022/10/07 01:17:41;;;;;;;;;;;11.00;99.90;;;;;;5022413;28;19929;-67
2022/10/07 01:20:06;;;;;;;;;;;11.00;99.90;;;;;;5008321;28;19952;-67
2022/10/07 01:22:35;;;;;;;;;;;11.00;99.90;;;;;;5023047;28;19964;-67
2022/10/07 01:25:20;;;;;;;;;;;11.10;99.90;;;;;;5006943;28;19948;-67
2022/10/07 01:27:48;;;;;;;;;;;11.10;99.90;;;;;;5002637;28;20254;-67
2022/10/07 01:30:14;;;;;;;;;;;11.10;99.90;;;;;;5025698;28;19944;-67
2022/10/07 01:32:43;;;;;;;;;;;11.10;99.90;;;;;;5021278;28;19922;-67
2022/10/07 01:35:15;;;;;;;;;;;11.30;99.90;;;;;;5019148;28;20004;-67
2022/10/07 01:37:43;;;;;;;;;;;11.20;99.90;;;;;;5001372;28;20270;-66
2022/10/07 01:40:11;;;;;;;;;;;11.40;99.90;;;;;;5005675;28;20485;-67
2022/10/07 01:42:37;;;;;;;;;;;11.40;99.90;;;;;;5006719;28;19925;-67
2022/10/07 01:45:03;;;;;;;;;;;11.20;99.90;;;;;;5005036;28;19922;-66
2022/10/07 01:47:32;;;;;;;;;;;11.20;99.90;;;;;;5006522;28;20011;-67
2022/10/07 01:49:57;;;;;;;;;;;11.20;99.90;;;;;;5004633;28;19929;-66
2022/10/07 01:52:41;;;;;;;;;;;11.10;99.90;;;;;;5023376;28;19922;-66
2022/10/07 01:55:16;;;;;;;;;;;11.10;99.90;;;;;;5020394;28;19921;-67
2022/10/07 01:57:46;;;;;;;;;;;11.10;99.90;;;;;;5022394;28;20374;-67
2022/10/07 02:00:11;;;;;;;;;;;11.10;99.90;;;;;;5006722;28;19964;-66
2022/10/07 02:02:37;;;;;;;;;;;11.10;99.90;;;;;;5021311;28;20401;-67
2022/10/07 02:05:12;;;;;;;;;;;11.20;99.90;;;;;;5008212;28;19928;-66
2022/10/07 02:07:50;;;;;;;;;;;11.10;99.90;;;;;;5001004;28;19921;-66
2022/10/07 02:10:35;;;;;;;;;;;11.30;99.90;;;;;;5004581;28;19969;-66
2022/10/07 02:13:01;;;;;;;;;;;11.20;99.90;;;;;;5000901;28;20388;-66
2022/10/07 02:15:29;;;;;;;;;;;11.50;99.90;;;;;;5023925;28;19924;-67
2022/10/07 02:17:56;;;;;;;;;;;11.40;99.90;;;;;;5022271;28;19958;-66
2022/10/07 02:20:24;;;;;;;;;;;11.10;99.90;;;;;;5021082;28;19933;-67
2022/10/07 02:22:51;;;;;;;;;;;11.10;99.90;;;;;;5023196;28;19928;-67
2022/10/07 02:25:18;;;;;;;;;;;11.30;99.90;;;;;;5005795;28;19921;-67
2022/10/07 02:27:46;;;;;;;;;;;11.10;99.90;;;;;;5022762;28;20011;-67
2022/10/07 02:30:13;;;;;;;;;;;11.40;99.90;;;;;;5022730;28;20344;-67
2022/10/07 02:32:43;;;;;;;;;;;11.10;99.90;;;;;;5004176;28;20015;-67
2022/10/07 02:35:35;;;;;;;;;;;11.10;99.90;;;;;;5022641;28;19968;-67
2022/10/07 02:38:04;;;;;;;;;;;11.10;99.90;;;;;;5014860;28;19922;-67
2022/10/07 02:40:38;;;;;;;;;;;11.10;99.90;;;;;;5006651;28;20016;-67
2022/10/07 02:43:13;;;;;;;;;;;11.20;99.90;;;;;;5003537;28;19929;-66
2022/10/07 02:45:42;;;;;;;;;;;11.10;99.90;;;;;;5022934;28;19921;-66
2022/10/07 02:48:14;;;;;;;;;;;11.20;99.90;;;;;;5006889;28;19921;-67
2022/10/07 02:50:42;;;;;;;;;;;11.00;99.90;;;;;;5003914;28;19928;-66
2022/10/07 02:53:08;;;;;;;;;;;10.90;99.90;;;;;;5022597;28;20435;-67
2022/10/07 02:55:35;;;;;;;;;;;11.00;99.90;;;;;;5021841;28;19925;-67
2022/10/07 02:58:07;;;;;;;;;;;11.20;99.90;;;;;;4997525;28;19917;-67
2022/10/07 03:00:35;;;;;;;;;;;11.00;99.90;;;;;;5023036;28;19932;-67
2022/10/07 03:03:01;;;;;;;;;;;11.00;99.90;;;;;;5003904;28;20059;-67
2022/10/07 03:05:27;;;;;;;;;;;11.00;99.90;;;;;;5005803;28;19932;-67
2022/10/07 03:07:57;;;;;;;;;;;10.90;99.90;;;;;;5021281;28;19925;-67
2022/10/07 03:10:25;;;;;;;;;;;11.00;99.90;;;;;;5016559;28;19917;-67
2022/10/07 03:12:51;;;;;;;;;;;10.90;99.90;;;;;;4985502;28;19922;-67
2022/10/07 03:15:17;;;;;;;;;;;11.10;99.90;;;;;;5023544;28;19999;-67
2022/10/07 03:17:42;;;;;;;;;;;11.10;99.90;;;;;;5020541;28;20020;-66
2022/10/07 03:20:08;;;;;;;;;;;10.90;99.90;;;;;;5005253;28;19921;-67
2022/10/07 03:22:34;;;;;;;;;;;10.80;99.90;;;;;;4992970;28;20301;-67
2022/10/07 03:24:59;;;;;;;;;;;10.80;99.90;;;;;;5021199;28;19928;-66
2022/10/07 03:27:25;;;;;;;;;;;10.80;99.90;;;;;;5005337;28;20304;-66
2022/10/07 03:29:50;;;;;;;;;;;10.80;99.90;;;;;;5002838;28;20000;-67
2022/10/07 03:32:16;;;;;;;;;;;10.80;99.90;;;;;;5019178;28;19930;-69
2022/10/07 03:34:41;;;;;;;;;;;10.80;99.90;;;;;;5020828;28;19936;-66
2022/10/07 03:37:07;;;;;;;;;;;10.90;99.90;;;;;;5005325;28;20016;-66
2022/10/07 03:39:33;;;;;;;;;;;10.80;99.90;;;;;;5003198;28;19924;-67
2022/10/07 03:41:59;;;;;;;;;;;10.80;99.90;;;;;;5003102;28;19944;-66
2022/10/07 03:44:25;;;;;;;;;;;11.00;99.90;;;;;;4998259;28;19921;-66
2022/10/07 03:46:51;;;;;;;;;;;11.20;99.90;;;;;;5022546;28;19947;-66
2022/10/07 03:49:16;;;;;;;;;;;11.00;99.90;;;;;;5010399;28;19921;-66
2022/10/07 03:51:42;;;;;;;;;;;11.00;99.90;;;;;;5014143;28;20376;-66
2022/10/07 03:54:07;;;;;;;;;;;10.90;99.90;;;;;;5031170;28;19955;-66
2022/10/07 03:56:33;;;;;;;;;;;11.00;99.90;;;;;;5030968;28;19960;-66
2022/10/07 03:58:59;;;;;;;;;;;11.00;99.90;;;;;;5013541;28;19921;-66
2022/10/07 04:01:24;;;;;;;;;;;11.10;99.90;;;;;;5012885;28;20277;-66
2022/10/07 04:03:50;;;;;;;;;;;11.20;99.90;;;;;;5013889;28;20689;-66
2022/10/07 04:06:15;;;;;;;;;;;11.30;99.90;;;;;;5016465;28;20345;-66
2022/10/07 04:08:42;;;;;;;;;;;11.30;99.90;;;;;;5034822;28;20396;-66
2022/10/07 04:11:08;;;;;;;;;;;11.20;99.90;;;;;;5035696;28;19944;-66
2022/10/07 04:13:36;;;;;;;;;;;11.20;99.90;;;;;;5033702;28;20397;-66
2022/10/07 04:16:06;;;;;;;;;;;11.20;99.90;;;;;;5017831;28;19925;-66
2022/10/07 04:18:32;;;;;;;;;;;11.30;99.90;;;;;;5017036;28;19952;-66
2022/10/07 04:20:58;;;;;;;;;;;11.50;99.90;;;;;;5035018;28;19921;-66
2022/10/07 04:23:24;;;;;;;;;;;11.30;99.90;;;;;;5017090;28;19921;-66
2022/10/07 04:25:49;;;;;;;;;;;11.20;99.90;;;;;;5018056;28;19931;-66
2022/10/07 04:28:17;;;;;;;;;;;11.40;99.90;;;;;;5034476;28;20411;-66
2022/10/07 04:30:43;;;;;;;;;;;11.30;99.90;;;;;;5034877;28;20391;-67
2022/10/07 04:33:09;;;;;;;;;;;11.40;99.90;;;;;;5016625;28;20015;-66
2022/10/07 04:35:35;;;;;;;;;;;11.40;99.90;;;;;;5013597;28;20017;-68
2022/10/07 04:38:00;;;;;;;;;;;11.50;99.90;;;;;;5017275;28;19938;-67
2022/10/07 04:40:26;;;;;;;;;;;11.50;99.90;;;;;;5017240;28;19921;-67
2022/10/07 04:45:36;;;;;;;;;;;11.50;99.90;;;;;;5015052;28;19921;-66
2022/10/07 04:48:04;;;;;;;;;;;11.40;99.90;;;;;;5015024;28;19925;-65
2022/10/07 04:50:30;;;;;;;;;;;11.40;99.90;;;;;;5034366;28;20016;-64
2022/10/07 04:52:56;;;;;;;;;;;11.40;99.90;;;;;;5016887;28;20342;-66
2022/10/07 04:55:21;;;;;;;;;;;11.40;99.90;;;;;;5034355;28;19925;-67
2022/10/07 04:57:48;;;;;;;;;;;11.50;99.90;;;;;;5014275;28;20417;-69
2022/10/07 05:00:14;;;;;;;;;;;11.60;99.90;;;;;;5030263;28;19928;-70
2022/10/07 05:02:39;;;;;;;;;;;11.30;99.90;;;;;;5013300;28;20301;-68
2022/10/07 05:05:05;;;;;;;;;;;11.40;99.90;;;;;;5017086;28;19983;-69
2022/10/07 05:07:31;;;;;;;;;;;11.30;99.90;;;;;;5034107;28;19921;-67
2022/10/07 05:09:57;;;;;;;;;;;11.40;99.90;;;;;;5015943;28;19921;-65
2022/10/07 05:12:24;;;;;;;;;;;11.30;99.90;;;;;;5033899;28;20349;-67
2022/10/07 05:14:50;;;;;;;;;;;11.30;99.90;;;;;;5015993;28;19929;-66
2022/10/07 05:17:15;;;;;;;;;;;11.30;99.90;;;;;;5029171;28;19920;-68
2022/10/07 05:19:41;;;;;;;;;;;11.30;99.90;;;;;;5016490;28;19947;-70
2022/10/07 05:22:06;;;;;;;;;;;11.30;99.90;;;;;;5014020;28;20285;-68
2022/10/07 05:24:32;;;;;;;;;;;11.30;99.90;;;;;;5010404;28;19925;-68
2022/10/07 05:26:57;;;;;;;;;;;11.30;99.90;;;;;;5023928;28;20292;-67
2022/10/07 05:29:23;;;;;;;;;;;11.30;99.90;;;;;;5029261;28;19964;-67
2022/10/07 05:31:49;;;;;;;;;;;11.20;99.90;;;;;;5028723;28;20377;-68
2022/10/07 05:34:15;;;;;;;;;;;11.30;99.90;;;;;;5014450;28;20372;-68
2022/10/07 05:36:41;;;;;;;;;;;11.30;99.90;;;;;;5032871;28;19924;-70
2022/10/07 05:39:07;;;;;;;;;;;11.40;99.90;;;;;;5029323;28;19921;-69
2022/10/07 05:41:32;;;;;;;;;;;11.30;99.90;;;;;;5014116;28;19932;-67
2022/10/07 05:44:01;;;;;;;;;;;11.30;99.90;;;;;;5031568;28;20292;-68
2022/10/07 05:46:26;;;;;;;;;;;11.40;99.90;;;;;;5014077;28;19921;-68
2022/10/07 05:48:55;;;;;;;;;;;11.30;99.90;;;;;;5014947;28;19921;-68
2022/10/07 05:51:21;;;;;;;;;;;11.30;99.90;;;;;;5014916;28;19929;-68
2022/10/07 05:53:47;;;;;;;;;;;11.30;99.90;;;;;;5011898;28;19930;-68
2022/10/07 05:56:18;;;;;;;;;;;11.30;99.90;;;;;;5011625;28;20293;-68
2022/10/07 05:58:44;;;;;;;;;;;11.30;99.90;;;;;;5015826;28;19921;-68
2022/10/07 06:01:14;;;;;;;;;;;11.60;99.90;;;;;;5032784;28;19928;-68
2022/10/07 06:03:40;;;;;;;;;;;11.40;99.90;;;;;;5032921;28;20071;-67
2022/10/07 06:06:07;;;;;;;;;;;11.30;99.90;;;;;;5014210;28;19968;-67
2022/10/07 06:08:34;;;;;;;;;;;11.40;99.90;;;;;;5013160;28;19924;-67
2022/10/07 06:13:48;;;;;;;;;;;11.40;99.90;;;;;;5012608;28;20498;-69
2022/10/07 06:16:14;;;;;;;;;;;11.40;99.90;;;;;;5024200;28;19921;-69
2022/10/07 06:18:40;;;;;;;;;;;11.50;99.90;;;;;;5013382;28;19928;-68
2022/10/07 06:21:05;;;;;;;;;;;11.50;99.90;;;;;;5014161;28;20008;-66
2022/10/07 06:23:31;;;;;;;;;;;11.50;99.90;;;;;;5013468;28;19928;-66
2022/10/07 06:25:58;;;;;;;;;;;11.60;99.90;;;;;;5030456;28;19921;-67
2022/10/07 06:28:23;;;;;;;;;;;11.60;99.90;;;;;;5031154;28;19928;-68
2022/10/07 06:30:49;;;;;;;;;;;11.70;99.90;;;;;;5012053;28;19921;-67
2022/10/07 06:33:15;;;;;;;;;;;11.70;99.90;;;;;;5032502;28;19921;-67
2022/10/07 06:35:41;;;;;;;;;;;11.60;99.90;;;;;;5009903;28;19928;-66
2022/10/07 06:38:06;;;;;;;;;;;11.70;99.90;;;;;;5014534;28;20381;-68
2022/10/07 06:40:35;;;;;;;;;;;11.70;99.90;;;;;;5032707;28;19931;-67
2022/10/07 06:43:00;;;;;;;;;;;11.80;99.90;;;;;;5010118;28;20020;-67
2022/10/07 06:45:28;;;;;;;;;;;11.80;99.90;;;;;;5028323;28;20015;-66
2022/10/07 06:47:54;;;;;;;;;;;11.90;99.90;;;;;;5014292;28;19928;-69
2022/10/07 06:50:20;;;;;;;;;;;11.90;99.90;;;;;;5013709;28;19929;-67
2022/10/07 06:52:45;;;;;;;;;;;12.00;99.90;;;;;;5013804;28;19921;-66
2022/10/07 06:55:11;;;;;;;;;;;12.00;99.90;;;;;;5027825;28;19974;-67
2022/10/07 06:57:36;;;;;;;;;;;11.90;99.90;;;;;;5013802;28;19921;-67
2022/10/07 07:00:03;;;;;;;;;;;12.10;99.90;;;;;;5031936;28;19925;-67
2022/10/07 07:02:29;;;;;;;;;;;12.20;99.90;;;;;;5011595;28;19956;-67
2022/10/07 07:04:55;;;;;;;;;;;12.30;99.90;;;;;;5008820;28;19921;-66
2022/10/07 07:07:23;;;;;;;;;;;12.40;99.90;;;;;;5014109;28;19921;-67
2022/10/07 07:09:51;;;;;;;;;;;12.60;99.90;;;;;;5030639;28;19921;-67
2022/10/07 07:12:17;;;;;;;;;;;12.50;99.90;;;;;;5032246;28;20016;-67
2022/10/07 07:14:44;;;;;;;;;;;12.60;99.90;;;;;;5011073;28;19925;-67
2022/10/07 07:17:12;;;;;;;;;;;12.60;99.90;;;;;;5010629;28;20082;-67
2022/10/07 07:19:38;;;;;;;;;;;12.60;99.90;;;;;;5006773;28;20009;-66
2022/10/07 07:22:06;;;;;;;;;;;12.70;99.90;;;;;;5014004;28;19925;-67
2022/10/07 07:24:31;;;;;;;;;;;12.70;99.90;;;;;;5031267;28;19928;-67
2022/10/07 07:27:03;;;;;;;;;;;12.80;99.90;;;;;;5013320;28;19925;-67
2022/10/07 07:29:28;;;;;;;;;;;12.90;99.90;;;;;;5013568;28;19991;-67
2022/10/07 07:31:54;;;;;;;;;;;13.00;99.90;;;;;;5011775;28;20325;-67
2022/10/07 07:34:19;;;;;;;;;;;13.10;99.90;;;;;;5005493;28;19921;-67
2022/10/07 07:36:46;;;;;;;;;;;13.20;99.90;;;;;;5009679;28;19928;-67
2022/10/07 07:39:13;;;;;;;;;;;13.30;99.90;;;;;;5031114;28;19924;-67
2022/10/07 07:41:46;;;;;;;;;;;13.60;99.90;;;;;;5031293;28;19921;-67
2022/10/07 07:44:13;;;;;;;;;;;13.90;99.90;;;;;;5009849;28;19974;-67
2022/10/07 07:46:43;;;;;;;;;;;14.00;99.90;;;;;;5030496;28;19921;-67
2022/10/07 07:49:09;;;;;;;;;;;14.50;99.90;;;;;;5009424;28;20254;-68
2022/10/07 07:51:35;;;;;;;;;;;15.20;99.90;;;;;;5001090;28;19928;-68
2022/10/07 07:54:01;;;;;;;;;;;15.80;99.90;;;;;;4998367;28;20440;-68
2022/10/07 07:56:28;;;;;;;;;;;16.40;99.90;;;;;;5022127;28;19999;-68
2022/10/07 07:58:54;;;;;;;;;;;16.70;99.90;;;;;;5020341;28;19921;-67
2022/10/07 08:01:20;;;;;;;;;;;17.10;99.90;;;;;;5022034;28;19954;-68
2022/10/07 08:03:46;;;;;;;;;;;17.70;99.90;;;;;;5004224;28;19929;-67
2022/10/07 08:06:12;;;;;;;;;;;18.10;99.90;;;;;;5022154;28;20364;-68
2022/10/07 08:08:43;;;;;;;;;;;18.40;99.90;;;;;;5020692;28;19921;-67
2022/10/07 08:11:10;;;;;;;;;;;18.40;99.90;;;;;;5022695;28;20026;-68
2022/10/07 08:13:40;;;;;;;;;;;18.70;99.90;;;;;;5001615;28;19984;-68
2022/10/07 08:16:06;;;;;;;;;;;18.80;99.90;;;;;;5005717;28;19921;-68
2022/10/07 08:18:32;;;;;;;;;;;19.20;99.90;;;;;;5001839;28;19975;-67
2022/10/07 08:20:58;;;;;;;;;;;19.40;99.90;;;;;;4983793;28;20370;-68
2022/10/07 08:23:25;;;;;;;;;;;19.50;99.90;;;;;;5004812;28;19921;-68
2022/10/07 08:25:57;;;;;;;;;;;19.70;99.90;;;;;;5003166;28;19921;-67
2022/10/07 08:28:23;;;;;;;;;;;19.90;99.90;;;;;;5021742;28;20400;-68
2022/10/07 08:30:49;;;;;;;;;;;20.10;99.90;;;;;;5002863;28;19916;-67
2022/10/07 08:33:15;;;;;;;;;;;20.70;99.90;;;;;;5022333;28;19925;-67
2022/10/07 08:35:41;;;;;;;;;;;20.50;99.90;;;;;;4991429;28;19948;-68
2022/10/07 08:38:06;;;;;;;;;;;20.50;99.90;;;;;;4987716;28;19936;-67
2022/10/07 08:40:32;;;;;;;;;;;20.70;99.90;;;;;;5022438;28;19925;-68
2022/10/07 08:42:59;;;;;;;;;;;21.20;99.90;;;;;;5001440;28;19921;-68
2022/10/07 08:45:28;;;;;;;;;;;21.70;99.80;;;;;;4989723;28;19922;-67
2022/10/07 08:47:55;;;;;;;;;;;21.90;98.90;;;;;;5019313;28;19921;-68
2022/10/07 08:50:24;;;;;;;;;;;21.80;98.10;;;;;;5013320;28;19921;-68
2022/10/07 08:53:07;;;;;;;;;;;22.00;98.00;;;;;;5016924;28;19921;-67
2022/10/07 08:55:45;;;;;;;;;;;22.00;97.80;;;;;;5009136;28;20398;-68
2022/10/07 08:58:26;;;;;;;;;;;21.60;98.30;;;;;;5017093;28;19983;-67
2022/10/07 09:00:54;;;;;;;;;;;21.80;98.10;;;;;;5013658;28;19921;-67
2022/10/07 09:03:26;;;;;;;;;;;22.20;97.50;;;;;;5012454;28;19967;-68
2022/10/07 09:05:52;;;;;;;;;;;22.20;97.10;;;;;;5009304;28;20008;-67
2022/10/07 09:08:29;;;;;;;;;;;21.90;97.50;;;;;;5029686;28;19921;-68
2022/10/07 09:10:58;;;;;;;;;;;21.60;97.30;;;;;;5013300;28;19947;-67
2022/10/07 09:13:36;;;;;;;;;;;21.20;98.30;;;;;;5013131;28;19921;-68
2022/10/07 09:16:04;;;;;;;;;;;20.90;98.60;;;;;;5033998;28;20038;-67
2022/10/07 09:19:08;;;;;;;;;;;21.30;98.80;;;;;;5033915;28;19921;-67
2022/10/07 09:21:54;;;;;;;;;;;22.00;98.20;;;;;;4971207;28;19921;-67
2022/10/07 09:24:23;;;;;;;;;;;22.30;97.50;;;;;;4985097;28;19978;-68
2022/10/07 09:26:53;;;;;;;;;;;22.60;96.60;;;;;;4987126;28;19921;-67
2022/10/07 09:29:21;;;;;;;;;;;22.50;96.80;;;;;;5022051;28;19967;-68
2022/10/07 09:31:48;;;;;;;;;;;22.70;96.50;;;;;;5026679;28;20332;-68
2022/10/07 09:34:18;;;;;;;;;;;22.70;96.40;;;;;;5016771;28;20288;-68
2022/10/07 09:37:03;;;;;;;;;;;22.60;96.50;;;;;;5030933;28;19921;-67
2022/10/07 09:39:28;;;;;;;;;;;22.80;95.90;;;;;;5015815;28;20353;-68
2022/10/07 09:41:54;;;;;;;;;;;22.60;96.50;;;;;;5013869;28;19928;-68
2022/10/07 09:44:24;;;;;;;;;;;22.90;96.30;;;;;;5014917;28;19925;-67
2022/10/07 09:46:56;;;;;;;;;;;22.90;96.00;;;;;;5029860;28;19944;-67
2022/10/07 09:49:24;;;;;;;;;;;23.00;95.60;;;;;;5014760;28;20365;-67
2022/10/07 09:52:04;;;;;;;;;;;22.90;96.40;;;;;;5015560;28;19928;-68
2022/10/07 09:54:31;;;;;;;;;;;22.50;95.80;;;;;;5033896;28;20004;-67
2022/10/07 09:56:58;;;;;;;;;;;22.90;96.30;;;;;;5033264;28;19925;-68
2022/10/07 09:59:31;;;;;;;;;;;22.70;96.10;;;;;;5014803;28;20024;-67
2022/10/07 10:02:01;;;;;;;;;;;22.90;96.30;;;;;;5015750;28;19921;-67
2022/10/07 10:04:34;;;;;;;;;;;23.20;95.60;;;;;;5032539;28;19948;-68
2022/10/07 10:07:02;;;;;;;;;;;22.70;96.40;;;;;;5032276;28;20008;-68
2022/10/07 10:09:27;;;;;;;;;;;22.60;96.30;;;;;;5015519;28;19928;-68
2022/10/07 10:12:11;;;;;;;;;;;22.90;96.00;;;;;;5033669;28;19921;-67
2022/10/07 10:14:42;;;;;;;;;;;23.10;95.80;;;;;;5015565;28;20315;-67
2022/10/07 10:17:19;;;;;;;;;;;23.50;95.70;;;;;;5029432;28;19928;-68
2022/10/07 10:19:45;;;;;;;;;;;23.90;95.20;;;;;;5029575;28;20019;-68
2022/10/07 10:22:22;;;;;;;;;;;23.80;95.40;;;;;;5015662;28;20066;-68
2022/10/07 10:27:37;;;;;;;;;;;24.20;94.80;;;;;;5032201;28;19929;-68
2022/10/07 10:30:04;;;;;;;;;;;24.40;94.00;;;;;;5015525;28;19932;-67
2022/10/07 10:32:32;;;;;;;;;;;24.50;94.00;;;;;;5014704;28;20277;-67
2022/10/07 10:34:59;;;;;;;;;;;24.40;94.00;;;;;;5014774;28;19971;-67
2022/10/07 10:37:44;;;;;;;;;;;23.90;94.70;;;;;;5032322;28;20263;-68
2022/10/07 10:40:29;;;;;;;;;;;23.50;94.60;;;;;;5014541;28;19921;-67
2022/10/07 10:43:15;;;;;;;;;;;23.80;94.70;;;;;;5015125;28;19928;-67
2022/10/07 10:45:59;;;;;;;;;;;23.60;95.20;;;;;;5029676;28;19921;-68
2022/10/07 10:48:43;;;;;;;;;;;23.60;95.00;;;;;;5026085;28;19922;-67
2022/10/07 10:51:32;;;;;;;;;;;24.00;94.40;;;;;;5009713;28;19945;-67
2022/10/07 10:54:09;;;;;;;;;;;23.70;94.60;;;;;;4995507;28;20285;-68
2022/10/07 10:57:04;;;;;;;;;;;23.20;95.10;;;;;;5008374;28;20270;-67
2022/10/07 10:59:36;;;;;;;;;;;22.60;95.40;;;;;;4998664;28;19928;-67
2022/10/07 11:02:20;;;;;;;;;;;22.00;96.60;;;;;;4990945;28;20011;-67
2022/10/07 11:04:52;;;;;;;;;;;21.80;97.40;;;;;;4993727;28;19922;-67
2022/10/07 11:07:22;;;;;;;;;;;21.60;97.10;;;;;;4994187;28;19928;-68
2022/10/07 11:09:50;;;;;;;;;;;21.00;98.20;;;;;;5012031;28;19922;-67
2022/10/07 11:12:22;;;;;;;;;;;21.30;97.50;;;;;;5016082;28;19922;-67
2022/10/07 11:14:49;;;;;;;;;;;21.40;97.80;;;;;;4994436;28;19921;-67
2022/10/07 11:17:16;;;;;;;;;;;21.80;98.10;;;;;;4994104;28;19932;-67
2022/10/07 11:19:54;;;;;;;;;;;22.20;97.30;;;;;;5012608;28;19928;-67
2022/10/07 11:22:28;;;;;;;;;;;22.60;96.60;;;;;;4994461;28;19926;-68
2022/10/07 11:24:57;;;;;;;;;;;22.60;96.40;;;;;;4994601;28;20020;-67
2022/10/07 11:27:24;;;;;;;;;;;22.90;96.70;;;;;;5011801;28;19932;-67
2022/10/07 11:29:50;;;;;;;;;;;23.30;96.40;;;;;;5011685;28;20004;-67
2022/10/07 11:32:40;;;;;;;;;;;23.20;95.90;;;;;;4994635;28;20068;-67
2022/10/07 11:35:12;;;;;;;;;;;23.50;95.40;;;;;;4991921;28;19972;-69
2022/10/07 11:37:49;;;;;;;;;;;22.90;95.60;;;;;;4993215;28;19922;-68
2022/10/07 11:40:15;;;;;;;;;;;22.50;96.20;;;;;;5011819;28;19932;-69
2022/10/07 11:42:48;;;;;;;;;;;22.50;96.40;;;;;;4994273;28;19921;-67
2022/10/07 11:45:20;;;;;;;;;;;22.80;96.50;;;;;;5011139;28;19931;-68
2022/10/07 11:47:49;;;;;;;;;;;22.50;96.30;;;;;;4993682;28;19932;-68
2022/10/07 11:50:19;;;;;;;;;;;22.60;96.10;;;;;;5009043;28;19928;-67
2022/10/07 11:52:49;;;;;;;;;;;22.60;96.00;;;;;;5012486;28;19920;-67
2022/10/07 11:55:26;;;;;;;;;;;22.50;96.50;;;;;;5008104;28;20378;-68
2022/10/07 11:57:54;;;;;;;;;;;22.50;96.60;;;;;;5011588;28;19921;-68
2022/10/07 12:00:28;;;;;;;;;;;22.50;96.30;;;;;;5013638;28;20009;-67
2022/10/07 12:02:55;;;;;;;;;;;21.90;96.90;;;;;;5010030;28;19928;-67
2022/10/07 12:05:44;;;;;;;;;;;21.50;97.70;;;;;;5009266;28;19921;-67
2022/10/07 12:08:24;;;;;;;;;;;21.40;97.80;;;;;;5021844;28;19920;-67
2022/10/07 12:10:52;;;;;;;;;;;20.80;98.40;;;;;;5027523;28;20014;-66
2022/10/07 12:13:19;;;;;;;;;;;20.30;99.00;;;;;;5008318;28;20059;-67
2022/10/07 12:15:45;;;;;;;;;;;20.10;99.60;;;;;;5032055;28;19921;-66
2022/10/07 12:18:11;;;;;;;;;;;20.50;99.60;;;;;;5013504;28;19928;-67
2022/10/07 12:20:43;;;;;;;;;;;20.50;99.60;;;;;;5008784;28;19925;-66
2022/10/07 12:23:15;;;;;;;;;;;20.80;98.80;;;;;;5009335;28;19924;-67
2022/10/07 12:25:41;;;;;;;;;;;20.50;99.00;;;;;;5013716;28;19921;-67
2022/10/07 12:28:22;;;;;;;;;;;20.10;99.30;;;;;;5017806;28;20040;-67
2022/10/07 12:30:59;;;;;;;;;;;19.90;99.90;;;;;;5014179;28;19972;-66
2022/10/07 12:33:39;;;;;;;;;;;20.00;99.90;;;;;;5013805;28;20104;-66
2022/10/07 12:36:17;;;;;;;;;;;20.40;99.60;;;;;;5035075;28;19921;-67
2022/10/07 12:38:52;;;;;;;;;;;20.70;99.60;;;;;;5017418;28;19971;-66
2022/10/07 12:41:27;;;;;;;;;;;20.40;99.90;;;;;;5012939;28;19975;-67
2022/10/07 12:44:11;;;;;;;;;;;20.60;99.40;;;;;;5014294;28;19950;-67
2022/10/07 12:46:36;;;;;;;;;;;20.10;99.90;;;;;;5034853;28;20019;-67
2022/10/07 12:49:24;;;;;;;;;;;19.40;99.90;;;;;;5033902;28;20048;-66
2022/10/07 12:51:55;;;;;;;;;;;19.20;99.90;;;;;;5006807;28;19928;-67
2022/10/07 12:54:22;;;;;;;;;;;19.20;99.90;;;;;;5033893;28;19921;-68
2022/10/07 12:56:48;;;;;;;;;;;19.50;99.90;;;;;;5034324;28;19936;-68
2022/10/07 13:02:22;;;;;;;;;;;19.30;99.90;;;;;;5030949;28;19921;-67
2022/10/07 13:05:00;;;;;;;;;;;19.50;99.90;;;;;;5014120;28;19921;-68
2022/10/07 13:07:49;;;;;;;;;;;19.60;99.90;;;;;;5027390;28;19974;-67
2022/10/07 13:10:21;;;;;;;;;;;19.40;99.90;;;;;;5014792;28;19921;-68
2022/10/07 13:12:54;;;;;;;;;;;19.30;99.90;;;;;;5013537;28;19920;-68
2022/10/07 13:15:32;;;;;;;;;;;19.30;99.90;;;;;;5013271;28;20442;-68
2022/10/07 13:18:01;;;;;;;;;;;19.00;99.90;;;;;;5009009;28;19921;-67
2022/10/07 13:20:31;;;;;;;;;;;18.50;99.90;;;;;;5016372;28;19928;-67
2022/10/07 13:23:11;;;;;;;;;;;18.00;99.90;;;;;;5011720;28;20372;-67
2022/10/07 13:25:42;;;;;;;;;;;17.90;99.90;;;;;;5008296;28;19925;-68
2022/10/07 13:28:12;;;;;;;;;;;17.80;99.90;;;;;;5008352;28;20337;-67
2022/10/07 13:30:39;;;;;;;;;;;17.80;99.90;;;;;;5009868;28;19920;-68
2022/10/07 13:33:25;;;;;;;;;;;17.70;99.90;;;;;;5013070;28;19929;-67
2022/10/07 13:35:59;;;;;;;;;;;17.40;99.90;;;;;;5028125;28;19978;-67
2022/10/07 13:38:26;;;;;;;;;;;17.30;99.90;;;;;;5029442;28;20011;-70
2022/10/07 13:41:02;;;;;;;;;;;17.30;99.90;;;;;;5014667;28;19956;-67
2022/10/07 13:43:29;;;;;;;;;;;17.30;99.90;;;;;;5032558;28;19953;-67
2022/10/07 13:45:56;;;;;;;;;;;17.10;99.90;;;;;;5029802;28;19921;-67
2022/10/07 13:48:23;;;;;;;;;;;17.10;99.90;;;;;;5033610;28;20082;-67
2022/10/07 13:50:50;;;;;;;;;;;17.10;99.90;;;;;;5015046;28;19921;-67
2022/10/07 13:53:20;;;;;;;;;;;17.10;99.90;;;;;;5033249;28;20395;-67
2022/10/07 13:55:49;;;;;;;;;;;17.10;99.90;;;;;;5028435;28;19928;-67
2022/10/07 13:58:15;;;;;;;;;;;16.90;99.90;;;;;;5033260;28;19921;-67
2022/10/07 14:00:43;;;;;;;;;;;16.80;99.90;;;;;;5029262;28;19921;-67
2022/10/07 14:03:13;;;;;;;;;;;16.80;99.90;;;;;;5011282;28;19929;-67
2022/10/07 14:05:52;;;;;;;;;;;16.80;99.90;;;;;;5015098;28;19921;-67
2022/10/07 14:08:20;;;;;;;;;;;17.00;99.90;;;;;;5031117;28;19921;-67
2022/10/07 14:10:52;;;;;;;;;;;17.20;99.90;;;;;;5026235;28;19921;-67
2022/10/07 14:13:17;;;;;;;;;;;17.10;99.90;;;;;;5012900;28;20016;-67
2022/10/07 14:15:46;;;;;;;;;;;17.20;99.90;;;;;;5009871;28;20134;-67
2022/10/07 14:18:13;;;;;;;;;;;17.30;99.90;;;;;;5027424;28;19921;-67
2022/10/07 14:20:42;;;;;;;;;;;17.30;99.90;;;;;;5030404;28;20380;-67
2022/10/07 14:23:21;;;;;;;;;;;17.20;99.90;;;;;;5011425;28;19964;-67
2022/10/07 14:25:51;;;;;;;;;;;17.10;99.90;;;;;;5014187;28;20433;-67
2022/10/07 14:28:23;;;;;;;;;;;17.00;99.90;;;;;;5010054;28;19928;-67
2022/10/07 14:37:08;;;;;;;;;;;16.90;99.90;;;;;;5011960;28;19922;-66
2022/10/07 14:39:35;;;;;;;;;;;16.90;99.90;;;;;;5017945;28;19925;-67
2022/10/07 14:42:01;;;;;;;;;;;17.00;99.90;;;;;;5010321;28;19920;-67
2022/10/07 14:44:27;;;;;;;;;;;16.90;99.90;;;;;;5010948;28;20003;-68
2022/10/07 14:47:03;;;;;;;;;;;17.00;99.90;;;;;;5027718;28;19996;-67